sensor_id;sensor_type;location;lat;lon;timestamp;pressure;altitude;pressure_sealevel;temperature;humidity
50933;BME280;36921;49.006;9.292;2023-07-31T00:00:30;98828.94;;;14.54;100.00
50933;BME280;36921;49.006;9.292;2023-07-31T00:02:55;98831.47;;;14.49;100.00
50933;BME280;36921;49.006;9.292;2023-07-31T00:05:21;98827.47;;;14.52;100.00
50933;BME280;36921;49.006;9.292;2023-07-31T00:07:46;98829.34;;;14.51;100.00
50933;BME280;36921;49.006;9.292;2023-07-31T00:10:12;98828.16;;;14.47;100.00
50933;BME280;36921;49.006;9.292;2023-07-31T00:12:38;98835.72;;;14.45;100.00
50933;BME280;36921;49.006;9.292;2023-07-31T00:15:05;98825.94;;;14.37;100.00
50933;BME280;36921;49.006;9.292;2023-07-31T00:17:30;98841.47;;;14.37;100.00
50933;BME280;36921;49.006;9.292;2023-07-31T00:19:55;98852.09;;;14.20;100.00
50933;BME280;36921;49.006;9.292;2023-07-31T00:22:21;98839.19;;;14.15;100.00
50933;BME280;36921;49.006;9.292;2023-07-31T00:24:46;98836.22;;;14.17;100.00
50933;BME280;36921;49.006;9.292;2023-07-31T00:27:11;98833.75;;;14.15;100.00
50933;BME280;36921;49.006;9.292;2023-07-31T00:29:37;98832.06;;;14.14;100.00
50933;BME280;36921;49.006;9.292;2023-07-31T00:32:02;98828.53;;;14.14;100.00
50933;BME280;36921;49.006;9.292;2023-07-31T00:34:28;98824.34;;;14.11;100.00
50933;BME280;36921;49.006;9.292;2023-07-31T00:36:53;98830.88;;;14.29;100.00
50933;BME280;36921;49.006;9.292;2023-07-31T00:39:18;98817.50;;;14.27;100.00
50933;BME280;36921;49.006;9.292;2023-07-31T00:41:44;98829.81;;;14.30;100.00
50933;BME280;36921;49.006;9.292;2023-07-31T00:44:09;98836.47;;;14.34;100.00
50933;BME280;36921;49.006;9.292;2023-07-31T00:46:35;98834.78;;;14.33;100.00
50933;BME280;36921;49.006;9.292;2023-07-31T00:49:00;98826.63;;;14.33;100.00
50933;BME280;36921;49.006;9.292;2023-07-31T00:51:25;98827.38;;;14.40;100.00
50933;BME280;36921;49.006;9.292;2023-07-31T00:53:51;98834.50;;;14.41;100.00
50933;BME280;36921;49.006;9.292;2023-07-31T00:56:19;98820.81;;;14.29;100.00
50933;BME280;36921;49.006;9.292;2023-07-31T00:58:44;98818.78;;;14.24;100.00
50933;BME280;36921;49.006;9.292;2023-07-31T01:01:10;98839.66;;;14.31;100.00
50933;BME280;36921;49.006;9.292;2023-07-31T01:03:35;98817.56;;;14.20;100.00
50933;BME280;36921;49.006;9.292;2023-07-31T01:08:51;98815.53;;;14.16;100.00
50933;BME280;36921;49.006;9.292;2023-07-31T01:11:27;98818.31;;;14.09;100.00
50933;BME280;36921;49.006;9.292;2023-07-31T01:13:54;98810.16;;;14.09;100.00
50933;BME280;36921;49.006;9.292;2023-07-31T01:16:19;98815.44;;;14.04;100.00
50933;BME280;36921;49.006;9.292;2023-07-31T01:18:45;98798.94;;;13.99;100.00
50933;BME280;36921;49.006;9.292;2023-07-31T01:26:53;98794.59;;;14.16;100.00
50933;BME280;36921;49.006;9.292;2023-07-31T01:29:44;98799.00;;;14.17;100.00
50933;BME280;36921;49.006;9.292;2023-07-31T01:32:11;98784.63;;;14.10;100.00
50933;BME280;36921;49.006;9.292;2023-07-31T01:34:38;98779.63;;;14.07;100.00
50933;BME280;36921;49.006;9.292;2023-07-31T01:37:04;98776.59;;;14.15;100.00
50933;BME280;36921;49.006;9.292;2023-07-31T01:39:30;98776.59;;;14.34;100.00
50933;BME280;36921;49.006;9.292;2023-07-31T01:41:55;98773.56;;;14.42;100.00
50933;BME280;36921;49.006;9.292;2023-07-31T01:44:20;98783.97;;;14.45;100.00
50933;BME280;36921;49.006;9.292;2023-07-31T01:46:46;98779.16;;;14.47;100.00
50933;BME280;36921;49.006;9.292;2023-07-31T01:49:11;98774.16;;;14.44;100.00
50933;BME280;36921;49.006;9.292;2023-07-31T01:51:36;98776.13;;;14.55;100.00
50933;BME280;36921;49.006;9.292;2023-07-31T01:54:02;98770.69;;;14.55;100.00
50933;BME280;36921;49.006;9.292;2023-07-31T01:56:27;98764.19;;;14.56;100.00
50933;BME280;36921;49.006;9.292;2023-07-31T01:58:53;98766.00;;;14.62;100.00
50933;BME280;36921;49.006;9.292;2023-07-31T02:01:18;98769.22;;;14.71;100.00
50933;BME280;36921;49.006;9.292;2023-07-31T02:03:43;98747.50;;;14.64;100.00
50933;BME280;36921;49.006;9.292;2023-07-31T02:06:09;98766.72;;;14.69;100.00
50933;BME280;36921;49.006;9.292;2023-07-31T02:08:34;98755.31;;;14.61;100.00
50933;BME280;36921;49.006;9.292;2023-07-31T02:10:59;98751.09;;;14.65;100.00
50933;BME280;36921;49.006;9.292;2023-07-31T02:13:25;98755.56;;;14.59;100.00
50933;BME280;36921;49.006;9.292;2023-07-31T02:15:50;98760.56;;;14.62;100.00
50933;BME280;36921;49.006;9.292;2023-07-31T02:18:16;98750.13;;;14.59;100.00
50933;BME280;36921;49.006;9.292;2023-07-31T02:20:41;98759.63;;;14.50;100.00
50933;BME280;36921;49.006;9.292;2023-07-31T02:23:06;98750.72;;;14.43;100.00
50933;BME280;36921;49.006;9.292;2023-07-31T02:25:32;98737.41;;;14.35;100.00
50933;BME280;36921;49.006;9.292;2023-07-31T02:27:57;98738.41;;;14.22;100.00
50933;BME280;36921;49.006;9.292;2023-07-31T02:30:22;98743.03;;;14.21;100.00
50933;BME280;36921;49.006;9.292;2023-07-31T02:32:48;98748.41;;;14.28;100.00
50933;BME280;36921;49.006;9.292;2023-07-31T02:35:13;98753.16;;;14.33;100.00
50933;BME280;36921;49.006;9.292;2023-07-31T02:37:41;98723.47;;;14.31;100.00
50933;BME280;36921;49.006;9.292;2023-07-31T02:40:07;98745.59;;;14.53;100.00
50933;BME280;36921;49.006;9.292;2023-07-31T02:42:32;98718.56;;;14.52;100.00
50933;BME280;36921;49.006;9.292;2023-07-31T02:44:58;98731.44;;;14.75;100.00
50933;BME280;36921;49.006;9.292;2023-07-31T02:47:23;98712.16;;;14.76;100.00
50933;BME280;36921;49.006;9.292;2023-07-31T02:49:48;98721.91;;;14.84;100.00
50933;BME280;36921;49.006;9.292;2023-07-31T02:52:13;98707.81;;;14.87;100.00
50933;BME280;36921;49.006;9.292;2023-07-31T02:54:39;98707.53;;;14.77;100.00
50933;BME280;36921;49.006;9.292;2023-07-31T02:57:04;98720.13;;;14.78;100.00
50933;BME280;36921;49.006;9.292;2023-07-31T02:59:30;98720.28;;;14.64;100.00
50933;BME280;36921;49.006;9.292;2023-07-31T03:01:55;98720.41;;;14.58;100.00
50933;BME280;36921;49.006;9.292;2023-07-31T03:04:20;98719.19;;;14.35;100.00
50933;BME280;36921;49.006;9.292;2023-07-31T03:06:46;98719.53;;;14.27;100.00
50933;BME280;36921;49.006;9.292;2023-07-31T03:09:11;98731.53;;;14.19;100.00
50933;BME280;36921;49.006;9.292;2023-07-31T03:11:36;98714.63;;;13.99;100.00
50933;BME280;36921;49.006;9.292;2023-07-31T03:14:02;98732.19;;;13.85;100.00
50933;BME280;36921;49.006;9.292;2023-07-31T03:16:27;98748.50;;;13.85;100.00
50933;BME280;36921;49.006;9.292;2023-07-31T03:18:53;98746.22;;;13.63;100.00
50933;BME280;36921;49.006;9.292;2023-07-31T03:21:19;98751.69;;;13.56;100.00
50933;BME280;36921;49.006;9.292;2023-07-31T03:23:44;98761.97;;;13.54;100.00
50933;BME280;36921;49.006;9.292;2023-07-31T03:26:09;98764.09;;;13.52;100.00
50933;BME280;36921;49.006;9.292;2023-07-31T03:28:35;98746.38;;;13.43;100.00
50933;BME280;36921;49.006;9.292;2023-07-31T03:31:01;98758.38;;;13.61;100.00
50933;BME280;36921;49.006;9.292;2023-07-31T03:33:26;98749.53;;;13.65;100.00
50933;BME280;36921;49.006;9.292;2023-07-31T03:35:51;98742.97;;;13.73;100.00
50933;BME280;36921;49.006;9.292;2023-07-31T03:38:17;98736.03;;;13.77;100.00
50933;BME280;36921;49.006;9.292;2023-07-31T03:40:44;98743.97;;;13.78;100.00
50933;BME280;36921;49.006;9.292;2023-07-31T03:43:09;98744.41;;;13.75;100.00
50933;BME280;36921;49.006;9.292;2023-07-31T03:45:35;98742.75;;;13.93;100.00
50933;BME280;36921;49.006;9.292;2023-07-31T03:48:00;98725.91;;;13.84;100.00
50933;BME280;36921;49.006;9.292;2023-07-31T03:50:26;98733.56;;;13.94;100.00
50933;BME280;36921;49.006;9.292;2023-07-31T03:52:52;98736.63;;;13.97;100.00
50933;BME280;36921;49.006;9.292;2023-07-31T03:55:17;98734.53;;;13.99;100.00
50933;BME280;36921;49.006;9.292;2023-07-31T03:57:43;98739.19;;;14.11;100.00
50933;BME280;36921;49.006;9.292;2023-07-31T04:00:09;98730.28;;;14.03;100.00
50933;BME280;36921;49.006;9.292;2023-07-31T04:02:34;98724.97;;;14.09;100.00
50933;BME280;36921;49.006;9.292;2023-07-31T04:05:00;98715.53;;;14.11;100.00
50933;BME280;36921;49.006;9.292;2023-07-31T04:07:25;98715.47;;;14.18;100.00
50933;BME280;36921;49.006;9.292;2023-07-31T04:09:50;98704.25;;;14.26;100.00
50933;BME280;36921;49.006;9.292;2023-07-31T04:12:16;98701.53;;;14.26;100.00
50933;BME280;36921;49.006;9.292;2023-07-31T04:14:41;98713.53;;;14.37;100.00
50933;BME280;36921;49.006;9.292;2023-07-31T04:17:06;98709.75;;;14.38;100.00
50933;BME280;36921;49.006;9.292;2023-07-31T04:19:32;98718.19;;;14.48;100.00
50933;BME280;36921;49.006;9.292;2023-07-31T04:21:57;98720.09;;;14.47;100.00
50933;BME280;36921;49.006;9.292;2023-07-31T04:24:23;98709.31;;;14.41;100.00
50933;BME280;36921;49.006;9.292;2023-07-31T04:26:51;98717.16;;;14.49;100.00
50933;BME280;36921;49.006;9.292;2023-07-31T04:29:17;98714.44;;;14.49;100.00
50933;BME280;36921;49.006;9.292;2023-07-31T04:31:42;98704.56;;;14.48;100.00
50933;BME280;36921;49.006;9.292;2023-07-31T04:34:07;98724.09;;;14.63;100.00
50933;BME280;36921;49.006;9.292;2023-07-31T04:36:34;98718.91;;;14.74;100.00
50933;BME280;36921;49.006;9.292;2023-07-31T04:38:59;98704.69;;;14.72;100.00
50933;BME280;36921;49.006;9.292;2023-07-31T04:41:25;98694.53;;;14.79;100.00
50933;BME280;36921;49.006;9.292;2023-07-31T04:43:50;98713.78;;;15.07;100.00
50933;BME280;36921;49.006;9.292;2023-07-31T04:46:15;98711.28;;;15.29;100.00
50933;BME280;36921;49.006;9.292;2023-07-31T04:48:41;98710.81;;;15.32;100.00
50933;BME280;36921;49.006;9.292;2023-07-31T04:51:06;98695.88;;;15.35;100.00
50933;BME280;36921;49.006;9.292;2023-07-31T04:53:32;98706.81;;;15.47;100.00
50933;BME280;36921;49.006;9.292;2023-07-31T04:55:58;98694.97;;;15.41;100.00
50933;BME280;36921;49.006;9.292;2023-07-31T04:58:23;98699.56;;;15.52;100.00
50933;BME280;36921;49.006;9.292;2023-07-31T05:00:48;98678.22;;;15.49;100.00
50933;BME280;36921;49.006;9.292;2023-07-31T05:03:14;98661.03;;;15.61;100.00
50933;BME280;36921;49.006;9.292;2023-07-31T05:05:39;98694.47;;;15.80;100.00
50933;BME280;36921;49.006;9.292;2023-07-31T05:08:04;98690.78;;;15.74;100.00
50933;BME280;36921;49.006;9.292;2023-07-31T05:10:29;98682.63;;;15.74;100.00
50933;BME280;36921;49.006;9.292;2023-07-31T05:12:55;98672.19;;;15.71;100.00
50933;BME280;36921;49.006;9.292;2023-07-31T05:15:20;98681.41;;;15.82;100.00
50933;BME280;36921;49.006;9.292;2023-07-31T05:17:45;98662.34;;;15.70;100.00
50933;BME280;36921;49.006;9.292;2023-07-31T05:23:38;98642.19;;;15.71;100.00
50933;BME280;36921;49.006;9.292;2023-07-31T05:26:06;98670.00;;;15.96;100.00
50933;BME280;36921;49.006;9.292;2023-07-31T05:28:34;98670.81;;;16.09;100.00
50933;BME280;36921;49.006;9.292;2023-07-31T05:31:03;98674.66;;;16.25;100.00
50933;BME280;36921;49.006;9.292;2023-07-31T05:33:29;98663.34;;;16.33;100.00
50933;BME280;36921;49.006;9.292;2023-07-31T05:35:54;98653.53;;;16.49;100.00
50933;BME280;36921;49.006;9.292;2023-07-31T05:38:20;98664.34;;;16.72;100.00
50933;BME280;36921;49.006;9.292;2023-07-31T05:40:45;98667.91;;;16.90;100.00
50933;BME280;36921;49.006;9.292;2023-07-31T05:43:11;98657.75;;;16.85;100.00
50933;BME280;36921;49.006;9.292;2023-07-31T05:45:36;98661.56;;;17.01;100.00
50933;BME280;36921;49.006;9.292;2023-07-31T05:48:02;98675.69;;;17.31;100.00
50933;BME280;36921;49.006;9.292;2023-07-31T05:50:28;98668.16;;;17.39;100.00
50933;BME280;36921;49.006;9.292;2023-07-31T05:52:53;98660.84;;;17.44;100.00
50933;BME280;36921;49.006;9.292;2023-07-31T05:55:18;98657.78;;;17.41;100.00
50933;BME280;36921;49.006;9.292;2023-07-31T05:57:44;98676.81;;;17.69;100.00
50933;BME280;36921;49.006;9.292;2023-07-31T06:00:11;98664.25;;;17.90;100.00
50933;BME280;36921;49.006;9.292;2023-07-31T06:02:37;98653.03;;;18.14;100.00
50933;BME280;36921;49.006;9.292;2023-07-31T06:05:04;98650.09;;;18.48;100.00
50933;BME280;36921;49.006;9.292;2023-07-31T06:07:31;98655.41;;;18.59;100.00
50933;BME280;36921;49.006;9.292;2023-07-31T06:09:56;98644.44;;;18.81;100.00
50933;BME280;36921;49.006;9.292;2023-07-31T06:12:26;98657.63;;;19.22;100.00
50933;BME280;36921;49.006;9.292;2023-07-31T06:14:51;98651.63;;;19.30;100.00
50933;BME280;36921;49.006;9.292;2023-07-31T06:17:17;98643.25;;;19.47;100.00
50933;BME280;36921;49.006;9.292;2023-07-31T06:19:43;98651.22;;;19.48;100.00
50933;BME280;36921;49.006;9.292;2023-07-31T06:22:08;98662.94;;;19.76;100.00
50933;BME280;36921;49.006;9.292;2023-07-31T06:24:34;98662.59;;;20.25;100.00
50933;BME280;36921;49.006;9.292;2023-07-31T06:26:59;98656.31;;;20.50;100.00
50933;BME280;36921;49.006;9.292;2023-07-31T06:29:24;98665.94;;;20.53;100.00
50933;BME280;36921;49.006;9.292;2023-07-31T06:31:50;98656.66;;;21.36;100.00
50933;BME280;36921;49.006;9.292;2023-07-31T06:34:15;98638.06;;;23.26;100.00
50933;BME280;36921;49.006;9.292;2023-07-31T06:36:40;98643.53;;;25.22;100.00
50933;BME280;36921;49.006;9.292;2023-07-31T06:39:05;98648.44;;;26.55;81.83
50933;BME280;36921;49.006;9.292;2023-07-31T06:41:31;98644.75;;;27.58;75.99
50933;BME280;36921;49.006;9.292;2023-07-31T06:43:56;98647.09;;;28.05;70.76
50933;BME280;36921;49.006;9.292;2023-07-31T06:46:21;98646.00;;;28.23;69.44
50933;BME280;36921;49.006;9.292;2023-07-31T06:48:47;98659.31;;;25.82;75.54
50933;BME280;36921;49.006;9.292;2023-07-31T06:51:12;98661.97;;;24.94;78.49
50933;BME280;36921;49.006;9.292;2023-07-31T06:53:37;98654.31;;;25.98;75.92
50933;BME280;36921;49.006;9.292;2023-07-31T06:56:03;98653.34;;;28.19;64.98
50933;BME280;36921;49.006;9.292;2023-07-31T06:58:28;98647.56;;;29.89;62.10
50933;BME280;36921;49.006;9.292;2023-07-31T07:00:54;98653.41;;;31.52;55.73
50933;BME280;36921;49.006;9.292;2023-07-31T07:03:19;98642.75;;;28.30;60.07
50933;BME280;36921;49.006;9.292;2023-07-31T07:05:45;98641.94;;;26.59;64.11
50933;BME280;36921;49.006;9.292;2023-07-31T07:08:10;98649.66;;;25.79;69.22
50933;BME280;36921;49.006;9.292;2023-07-31T07:10:36;98645.50;;;25.03;71.88
50933;BME280;36921;49.006;9.292;2023-07-31T07:13:02;98644.78;;;24.97;74.97
50933;BME280;36921;49.006;9.292;2023-07-31T07:15:27;98635.41;;;24.93;75.38
50933;BME280;36921;49.006;9.292;2023-07-31T07:17:53;98629.50;;;25.32;75.30
50933;BME280;36921;49.006;9.292;2023-07-31T07:20:19;98637.34;;;24.36;77.54
50933;BME280;36921;49.006;9.292;2023-07-31T07:22:45;98633.38;;;24.23;79.55
50933;BME280;36921;49.006;9.292;2023-07-31T07:25:10;98641.22;;;23.68;81.26
50933;BME280;36921;49.006;9.292;2023-07-31T07:27:35;98633.25;;;22.68;90.43
50933;BME280;36921;49.006;9.292;2023-07-31T07:30:01;98632.44;;;22.68;98.96
50933;BME280;36921;49.006;9.292;2023-07-31T07:32:26;98631.28;;;22.74;95.75
50933;BME280;36921;49.006;9.292;2023-07-31T07:34:51;98627.53;;;23.28;95.19
50933;BME280;36921;49.006;9.292;2023-07-31T07:37:17;98619.53;;;22.97;95.56
50933;BME280;36921;49.006;9.292;2023-07-31T07:39:42;98638.25;;;22.22;100.00
50933;BME280;36921;49.006;9.292;2023-07-31T07:42:08;98624.00;;;21.99;100.00
50933;BME280;36921;49.006;9.292;2023-07-31T07:44:33;98623.91;;;22.69;100.00
50933;BME280;36921;49.006;9.292;2023-07-31T07:46:58;98613.28;;;23.74;99.65
50933;BME280;36921;49.006;9.292;2023-07-31T07:49:24;98612.66;;;24.44;89.37
50933;BME280;36921;49.006;9.292;2023-07-31T07:51:49;98623.47;;;24.60;89.21
50933;BME280;36921;49.006;9.292;2023-07-31T07:54:15;98621.66;;;24.88;83.67
50933;BME280;36921;49.006;9.292;2023-07-31T07:56:42;98624.19;;;25.03;79.90
50933;BME280;36921;49.006;9.292;2023-07-31T07:59:08;98625.88;;;24.66;81.04
50933;BME280;36921;49.006;9.292;2023-07-31T08:01:33;98625.94;;;24.80;80.94
50933;BME280;36921;49.006;9.292;2023-07-31T08:03:58;98621.88;;;24.91;78.53
50933;BME280;36921;49.006;9.292;2023-07-31T08:06:24;98601.75;;;25.79;73.55
50933;BME280;36921;49.006;9.292;2023-07-31T08:08:49;98603.44;;;27.34;67.10
50933;BME280;36921;49.006;9.292;2023-07-31T08:11:14;98618.81;;;25.86;68.45
50933;BME280;36921;49.006;9.292;2023-07-31T08:13:40;98615.78;;;25.83;68.85
50933;BME280;36921;49.006;9.292;2023-07-31T08:16:05;98620.03;;;26.08;68.96
50933;BME280;36921;49.006;9.292;2023-07-31T08:18:31;98606.19;;;26.44;70.02
50933;BME280;36921;49.006;9.292;2023-07-31T08:20:57;98590.56;;;27.16;65.27
50933;BME280;36921;49.006;9.292;2023-07-31T08:23:22;98605.00;;;27.49;64.08
50933;BME280;36921;49.006;9.292;2023-07-31T08:25:48;98582.81;;;28.06;61.94
50933;BME280;36921;49.006;9.292;2023-07-31T08:28:15;98589.50;;;30.96;56.13
50933;BME280;36921;49.006;9.292;2023-07-31T08:30:40;98582.78;;;33.70;50.43
50933;BME280;36921;49.006;9.292;2023-07-31T08:33:06;98571.22;;;33.43;46.31
50933;BME280;36921;49.006;9.292;2023-07-31T08:35:32;98583.03;;;33.49;46.73
50933;BME280;36921;49.006;9.292;2023-07-31T08:37:57;98578.72;;;33.67;46.31
50933;BME280;36921;49.006;9.292;2023-07-31T08:40:22;98573.69;;;33.92;43.56
50933;BME280;36921;49.006;9.292;2023-07-31T08:42:49;98583.31;;;33.59;45.37
50933;BME280;36921;49.006;9.292;2023-07-31T08:45:17;98576.88;;;32.71;46.66
50933;BME280;36921;49.006;9.292;2023-07-31T08:47:48;98580.47;;;31.12;47.72
50933;BME280;36921;49.006;9.292;2023-07-31T08:50:15;98586.47;;;28.76;52.27
50933;BME280;36921;49.006;9.292;2023-07-31T08:52:40;98578.53;;;28.00;55.21
50933;BME280;36921;49.006;9.292;2023-07-31T08:55:07;98569.84;;;29.23;54.02
50933;BME280;36921;49.006;9.292;2023-07-31T08:57:35;98578.88;;;27.99;54.82
50933;BME280;36921;49.006;9.292;2023-07-31T09:00:05;98584.16;;;27.06;57.17
50933;BME280;36921;49.006;9.292;2023-07-31T09:02:38;98564.53;;;27.74;56.79
50933;BME280;36921;49.006;9.292;2023-07-31T09:05:09;98565.44;;;27.52;58.03
50933;BME280;36921;49.006;9.292;2023-07-31T09:07:35;98551.13;;;27.76;58.60
50933;BME280;36921;49.006;9.292;2023-07-31T09:10:02;98562.44;;;26.41;60.29
50933;BME280;36921;49.006;9.292;2023-07-31T09:12:27;98559.44;;;25.59;63.72
50933;BME280;36921;49.006;9.292;2023-07-31T09:14:53;98557.66;;;24.76;66.71
50933;BME280;36921;49.006;9.292;2023-07-31T09:17:29;98558.31;;;24.54;69.72
50933;BME280;36921;49.006;9.292;2023-07-31T09:19:55;98562.22;;;24.53;71.93
50933;BME280;36921;49.006;9.292;2023-07-31T09:22:32;98566.13;;;24.98;72.91
50933;BME280;36921;49.006;9.292;2023-07-31T09:25:17;98561.41;;;24.99;71.75
50933;BME280;36921;49.006;9.292;2023-07-31T09:30:21;98571.19;;;25.10;72.27
50933;BME280;36921;49.006;9.292;2023-07-31T09:32:47;98571.16;;;25.56;71.80
50933;BME280;36921;49.006;9.292;2023-07-31T09:37:39;98548.41;;;24.66;72.92
50933;BME280;36921;49.006;9.292;2023-07-31T09:40:05;98550.75;;;24.21;75.38
50933;BME280;36921;49.006;9.292;2023-07-31T09:42:30;98542.63;;;23.92;77.00
50933;BME280;36921;49.006;9.292;2023-07-31T09:45:07;98539.22;;;23.76;76.97
50933;BME280;36921;49.006;9.292;2023-07-31T09:47:34;98527.59;;;23.55;79.52
50933;BME280;36921;49.006;9.292;2023-07-31T09:49:59;98536.47;;;23.76;80.16
50933;BME280;36921;49.006;9.292;2023-07-31T09:52:26;98537.59;;;23.70;79.96
50933;BME280;36921;49.006;9.292;2023-07-31T09:54:52;98536.09;;;24.02;79.04
50933;BME280;36921;49.006;9.292;2023-07-31T09:57:18;98518.25;;;23.94;79.25
50933;BME280;36921;49.006;9.292;2023-07-31T09:59:47;98525.41;;;24.52;79.72
50933;BME280;36921;49.006;9.292;2023-07-31T10:02:15;98534.34;;;25.28;75.01
50933;BME280;36921;49.006;9.292;2023-07-31T10:04:46;98509.13;;;26.98;69.21
50933;BME280;36921;49.006;9.292;2023-07-31T10:07:17;98516.69;;;28.03;63.36
50933;BME280;36921;49.006;9.292;2023-07-31T10:09:44;98511.97;;;28.38;60.03
50933;BME280;36921;49.006;9.292;2023-07-31T10:12:12;98514.41;;;27.88;61.55
50933;BME280;36921;49.006;9.292;2023-07-31T10:14:39;98508.66;;;26.73;65.70
50933;BME280;36921;49.006;9.292;2023-07-31T10:17:06;98508.88;;;26.40;66.04
50933;BME280;36921;49.006;9.292;2023-07-31T10:19:32;98487.06;;;27.81;63.93
50933;BME280;36921;49.006;9.292;2023-07-31T10:21:59;98498.66;;;30.57;56.74
50933;BME280;36921;49.006;9.292;2023-07-31T10:24:25;98487.22;;;32.02;53.69
50933;BME280;36921;49.006;9.292;2023-07-31T10:26:52;98499.56;;;31.15;52.20
50933;BME280;36921;49.006;9.292;2023-07-31T10:29:18;98489.97;;;31.04;51.16
50933;BME280;36921;49.006;9.292;2023-07-31T10:31:46;98502.72;;;30.80;51.18
50933;BME280;36921;49.006;9.292;2023-07-31T10:34:12;98482.44;;;31.17;49.55
50933;BME280;36921;49.006;9.292;2023-07-31T10:36:38;98488.59;;;31.22;49.90
50933;BME280;36921;49.006;9.292;2023-07-31T10:39:04;98486.44;;;27.93;55.24
50933;BME280;36921;49.006;9.292;2023-07-31T10:41:36;98479.63;;;29.96;54.14
50933;BME280;36921;49.006;9.292;2023-07-31T10:44:01;98486.81;;;29.17;53.93
50933;BME280;36921;49.006;9.292;2023-07-31T10:46:30;98469.09;;;29.51;52.72
50933;BME280;36921;49.006;9.292;2023-07-31T10:49:00;98487.50;;;27.66;56.22
50933;BME280;36921;49.006;9.292;2023-07-31T10:51:35;98494.19;;;26.85;58.77
50933;BME280;36921;49.006;9.292;2023-07-31T10:54:12;98492.59;;;26.02;61.29
50933;BME280;36921;49.006;9.292;2023-07-31T10:56:38;98492.38;;;25.63;63.72
50933;BME280;36921;49.006;9.292;2023-07-31T10:59:04;98494.03;;;25.50;64.26
50933;BME280;36921;49.006;9.292;2023-07-31T11:01:57;98502.84;;;25.38;65.50
50933;BME280;36921;49.006;9.292;2023-07-31T11:04:24;98491.34;;;25.58;64.98
50933;BME280;36921;49.006;9.292;2023-07-31T11:06:57;98494.59;;;25.88;65.23
50933;BME280;36921;49.006;9.292;2023-07-31T11:09:27;98483.72;;;25.92;66.47
50933;BME280;36921;49.006;9.292;2023-07-31T11:11:53;98469.59;;;26.92;63.37
50933;BME280;36921;49.006;9.292;2023-07-31T11:14:19;98471.91;;;29.04;57.99
50933;BME280;36921;49.006;9.292;2023-07-31T11:16:45;98470.47;;;27.59;57.70
50933;BME280;36921;49.006;9.292;2023-07-31T11:19:10;98465.81;;;28.03;58.31
50933;BME280;36921;49.006;9.292;2023-07-31T11:21:36;98482.38;;;28.51;57.58
50933;BME280;36921;49.006;9.292;2023-07-31T11:24:01;98468.25;;;28.39;58.00
50933;BME280;36921;49.006;9.292;2023-07-31T11:26:27;98463.84;;;28.29;56.80
50933;BME280;36921;49.006;9.292;2023-07-31T11:28:53;98461.16;;;28.76;55.25
50933;BME280;36921;49.006;9.292;2023-07-31T11:31:18;98465.13;;;28.75;56.60
50933;BME280;36921;49.006;9.292;2023-07-31T11:33:44;98452.03;;;30.03;54.73
50933;BME280;36921;49.006;9.292;2023-07-31T11:36:20;98452.28;;;31.72;49.49
50933;BME280;36921;49.006;9.292;2023-07-31T11:38:45;98449.94;;;31.25;48.46
50933;BME280;36921;49.006;9.292;2023-07-31T11:41:14;98450.22;;;32.49;45.91
50933;BME280;36921;49.006;9.292;2023-07-31T11:43:39;98438.09;;;33.05;45.47
50933;BME280;36921;49.006;9.292;2023-07-31T11:46:04;98439.31;;;31.92;46.50
50933;BME280;36921;49.006;9.292;2023-07-31T11:48:33;98433.00;;;32.79;45.55
50933;BME280;36921;49.006;9.292;2023-07-31T11:51:02;98442.25;;;33.27;44.57
50933;BME280;36921;49.006;9.292;2023-07-31T11:53:45;98437.25;;;32.73;46.06
50933;BME280;36921;49.006;9.292;2023-07-31T11:56:23;98424.56;;;34.52;43.04
50933;BME280;36921;49.006;9.292;2023-07-31T11:58:53;98422.94;;;34.71;42.00
50933;BME280;36921;49.006;9.292;2023-07-31T12:01:20;98408.84;;;35.96;42.26
50933;BME280;36921;49.006;9.292;2023-07-31T12:03:47;98398.75;;;35.92;39.80
50933;BME280;36921;49.006;9.292;2023-07-31T12:06:12;98412.78;;;35.88;39.72
50933;BME280;36921;49.006;9.292;2023-07-31T12:08:38;98407.69;;;35.18;41.40
50933;BME280;36921;49.006;9.292;2023-07-31T12:11:04;98407.22;;;34.08;42.08
50933;BME280;36921;49.006;9.292;2023-07-31T12:13:31;98403.03;;;32.07;44.72
50933;BME280;36921;49.006;9.292;2023-07-31T12:15:59;98410.47;;;30.23;48.66
50933;BME280;36921;49.006;9.292;2023-07-31T12:18:27;98402.28;;;28.39;51.15
50933;BME280;36921;49.006;9.292;2023-07-31T12:21:00;98400.53;;;28.17;52.90
50933;BME280;36921;49.006;9.292;2023-07-31T12:23:28;98401.22;;;28.14;53.38
50933;BME280;36921;49.006;9.292;2023-07-31T12:28:39;98388.13;;;29.18;52.37
50933;BME280;36921;49.006;9.292;2023-07-31T12:31:09;98398.06;;;28.98;52.88
50933;BME280;36921;49.006;9.292;2023-07-31T12:33:36;98385.84;;;29.41;51.44
50933;BME280;36921;49.006;9.292;2023-07-31T12:36:04;98373.94;;;29.32;52.18
50933;BME280;36921;49.006;9.292;2023-07-31T12:38:30;98390.88;;;27.71;54.32
50933;BME280;36921;49.006;9.292;2023-07-31T12:40:56;98374.69;;;27.39;54.53
50933;BME280;36921;49.006;9.292;2023-07-31T12:43:21;98379.91;;;27.31;55.49
50933;BME280;36921;49.006;9.292;2023-07-31T12:45:47;98369.53;;;27.15;56.85
50933;BME280;36921;49.006;9.292;2023-07-31T12:48:12;98374.28;;;26.65;57.41
50933;BME280;36921;49.006;9.292;2023-07-31T12:50:38;98373.25;;;26.53;59.79
50933;BME280;36921;49.006;9.292;2023-07-31T12:53:05;98366.63;;;26.49;59.32
50933;BME280;36921;49.006;9.292;2023-07-31T12:55:30;98363.28;;;26.29;60.33
50933;BME280;36921;49.006;9.292;2023-07-31T12:57:56;98357.19;;;25.96;61.69
50933;BME280;36921;49.006;9.292;2023-07-31T13:00:22;98353.41;;;26.14;61.48
50933;BME280;36921;49.006;9.292;2023-07-31T13:02:47;98350.56;;;26.28;60.64
50933;BME280;36921;49.006;9.292;2023-07-31T13:05:13;98341.63;;;26.62;60.93
50933;BME280;36921;49.006;9.292;2023-07-31T13:07:39;98347.63;;;26.56;60.60
50933;BME280;36921;49.006;9.292;2023-07-31T13:10:06;98336.78;;;26.45;61.67